sensor_id;sensor_type;location;lat;lon;timestamp;P1;durP1;ratioP1;P2;durP2;ratioP2
11034;SDS011;5571;48.110;-1.706;2024-03-02T00:00:01;8.80;;;2.67;;
11034;SDS011;5571;48.110;-1.706;2024-03-02T00:02:46;17.93;;;3.33;;
11034;SDS011;5571;48.110;-1.706;2024-03-02T00:05:17;9.40;;;2.93;;
11034;SDS011;5571;48.110;-1.706;2024-03-02T00:07:45;13.90;;;2.80;;
11034;SDS011;5571;48.110;-1.706;2024-03-02T00:10:14;12.60;;;2.80;;
11034;SDS011;5571;48.110;-1.706;2024-03-02T00:12:45;15.60;;;3.00;;
11034;SDS011;5571;48.110;-1.706;2024-03-02T00:18:08;12.83;;;2.73;;
11034;SDS011;5571;48.110;-1.706;2024-03-02T00:20:36;13.63;;;3.17;;
11034;SDS011;5571;48.110;-1.706;2024-03-02T00:23:06;14.07;;;2.63;;
11034;SDS011;5571;48.110;-1.706;2024-03-02T00:25:41;12.23;;;3.20;;
11034;SDS011;5571;48.110;-1.706;2024-03-02T00:28:21;9.20;;;2.73;;
11034;SDS011;5571;48.110;-1.706;2024-03-02T00:30:56;11.90;;;2.80;;
11034;SDS011;5571;48.110;-1.706;2024-03-02T00:33:30;7.17;;;2.27;;
11034;SDS011;5571;48.110;-1.706;2024-03-02T00:35:57;10.23;;;2.47;;
11034;SDS011;5571;48.110;-1.706;2024-03-02T00:38:24;12.87;;;2.60;;
11034;SDS011;5571;48.110;-1.706;2024-03-02T00:40:51;12.07;;;2.97;;
11034;SDS011;5571;48.110;-1.706;2024-03-02T00:46:07;11.87;;;2.83;;
11034;SDS011;5571;48.110;-1.706;2024-03-02T00:48:33;18.33;;;2.67;;
11034;SDS011;5571;48.110;-1.706;2024-03-02T00:51:02;8.37;;;2.30;;
11034;SDS011;5571;48.110;-1.706;2024-03-02T00:53:31;7.20;;;2.60;;
11034;SDS011;5571;48.110;-1.706;2024-03-02T00:56:00;19.83;;;2.63;;
11034;SDS011;5571;48.110;-1.706;2024-03-02T00:58:26;13.47;;;2.60;;
11034;SDS011;5571;48.110;-1.706;2024-03-02T01:00:52;12.87;;;2.53;;
11034;SDS011;5571;48.110;-1.706;2024-03-02T01:03:17;15.90;;;2.70;;
11034;SDS011;5571;48.110;-1.706;2024-03-02T01:05:44;15.07;;;2.80;;
11034;SDS011;5571;48.110;-1.706;2024-03-02T01:08:10;10.67;;;2.37;;
11034;SDS011;5571;48.110;-1.706;2024-03-02T01:10:36;14.00;;;2.87;;
11034;SDS011;5571;48.110;-1.706;2024-03-02T01:13:02;15.07;;;3.00;;
11034;SDS011;5571;48.110;-1.706;2024-03-02T01:15:27;14.47;;;3.03;;
11034;SDS011;5571;48.110;-1.706;2024-03-02T01:17:53;15.10;;;2.67;;
11034;SDS011;5571;48.110;-1.706;2024-03-02T01:20:19;11.67;;;2.20;;
11034;SDS011;5571;48.110;-1.706;2024-03-02T01:22:45;11.07;;;2.83;;
11034;SDS011;5571;48.110;-1.706;2024-03-02T01:25:10;9.63;;;2.03;;
11034;SDS011;5571;48.110;-1.706;2024-03-02T01:27:36;14.03;;;3.23;;
11034;SDS011;5571;48.110;-1.706;2024-03-02T01:30:01;12.73;;;2.63;;
11034;SDS011;5571;48.110;-1.706;2024-03-02T01:32:27;8.70;;;2.50;;
11034;SDS011;5571;48.110;-1.706;2024-03-02T01:34:53;8.37;;;2.50;;
11034;SDS011;5571;48.110;-1.706;2024-03-02T01:37:18;10.30;;;2.70;;
11034;SDS011;5571;48.110;-1.706;2024-03-02T01:39:44;10.30;;;2.43;;
11034;SDS011;5571;48.110;-1.706;2024-03-02T01:42:09;12.03;;;2.37;;
11034;SDS011;5571;48.110;-1.706;2024-03-02T01:44:39;9.67;;;2.20;;
11034;SDS011;5571;48.110;-1.706;2024-03-02T01:47:05;9.37;;;2.00;;
11034;SDS011;5571;48.110;-1.706;2024-03-02T01:49:30;7.80;;;2.10;;
11034;SDS011;5571;48.110;-1.706;2024-03-02T01:51:58;8.63;;;2.03;;
11034;SDS011;5571;48.110;-1.706;2024-03-02T01:54:23;7.47;;;1.97;;
11034;SDS011;5571;48.110;-1.706;2024-03-02T01:56:49;9.60;;;2.50;;
11034;SDS011;5571;48.110;-1.706;2024-03-02T01:59:14;5.60;;;2.03;;
11034;SDS011;5571;48.110;-1.706;2024-03-02T02:01:40;9.13;;;2.27;;
11034;SDS011;5571;48.110;-1.706;2024-03-02T02:04:05;9.83;;;2.53;;
11034;SDS011;5571;48.110;-1.706;2024-03-02T02:06:32;12.57;;;2.43;;
11034;SDS011;5571;48.110;-1.706;2024-03-02T02:08:58;10.10;;;2.70;;
11034;SDS011;5571;48.110;-1.706;2024-03-02T02:11:24;12.00;;;2.73;;
11034;SDS011;5571;48.110;-1.706;2024-03-02T02:13:50;8.70;;;2.23;;
11034;SDS011;5571;48.110;-1.706;2024-03-02T02:16:15;12.43;;;2.87;;
11034;SDS011;5571;48.110;-1.706;2024-03-02T02:18:41;9.77;;;2.20;;
11034;SDS011;5571;48.110;-1.706;2024-03-02T02:21:07;11.70;;;2.60;;
11034;SDS011;5571;48.110;-1.706;2024-03-02T02:23:32;13.57;;;3.27;;
11034;SDS011;5571;48.110;-1.706;2024-03-02T02:25:58;13.13;;;2.93;;
11034;SDS011;5571;48.110;-1.706;2024-03-02T02:28:24;12.10;;;2.53;;
11034;SDS011;5571;48.110;-1.706;2024-03-02T02:30:49;12.00;;;3.00;;
11034;SDS011;5571;48.110;-1.706;2024-03-02T02:33:15;13.93;;;2.40;;
11034;SDS011;5571;48.110;-1.706;2024-03-02T02:35:40;11.73;;;2.50;;
11034;SDS011;5571;48.110;-1.706;2024-03-02T02:38:06;12.57;;;2.43;;
11034;SDS011;5571;48.110;-1.706;2024-03-02T02:40:32;12.40;;;2.80;;
11034;SDS011;5571;48.110;-1.706;2024-03-02T02:42:58;12.70;;;2.30;;
11034;SDS011;5571;48.110;-1.706;2024-03-02T02:45:26;12.93;;;2.40;;
11034;SDS011;5571;48.110;-1.706;2024-03-02T02:47:52;10.27;;;2.50;;
11034;SDS011;5571;48.110;-1.706;2024-03-02T02:50:17;12.27;;;2.60;;
11034;SDS011;5571;48.110;-1.706;2024-03-02T02:52:43;10.73;;;2.77;;
11034;SDS011;5571;48.110;-1.706;2024-03-02T02:55:09;12.57;;;2.23;;
11034;SDS011;5571;48.110;-1.706;2024-03-02T02:57:36;11.27;;;2.30;;
11034;SDS011;5571;48.110;-1.706;2024-03-02T03:00:08;12.57;;;2.50;;
11034;SDS011;5571;48.110;-1.706;2024-03-02T03:02:41;7.27;;;2.20;;
11034;SDS011;5571;48.110;-1.706;2024-03-02T03:05:07;13.23;;;2.53;;
11034;SDS011;5571;48.110;-1.706;2024-03-02T03:07:34;14.90;;;3.03;;
11034;SDS011;5571;48.110;-1.706;2024-03-02T03:10:01;7.03;;;2.53;;
11034;SDS011;5571;48.110;-1.706;2024-03-02T03:12:28;11.13;;;2.17;;
11034;SDS011;5571;48.110;-1.706;2024-03-02T03:14:54;13.53;;;2.40;;
11034;SDS011;5571;48.110;-1.706;2024-03-02T03:17:20;8.37;;;2.37;;
11034;SDS011;5571;48.110;-1.706;2024-03-02T03:19:46;11.53;;;2.57;;
11034;SDS011;5571;48.110;-1.706;2024-03-02T03:22:12;5.87;;;1.77;;
11034;SDS011;5571;48.110;-1.706;2024-03-02T03:24:38;10.30;;;2.10;;
11034;SDS011;5571;48.110;-1.706;2024-03-02T03:27:04;7.53;;;1.90;;
11034;SDS011;5571;48.110;-1.706;2024-03-02T03:29:29;12.60;;;2.53;;
11034;SDS011;5571;48.110;-1.706;2024-03-02T03:31:55;10.43;;;2.00;;
11034;SDS011;5571;48.110;-1.706;2024-03-02T03:34:20;12.67;;;1.93;;
11034;SDS011;5571;48.110;-1.706;2024-03-02T03:36:46;11.10;;;2.30;;
11034;SDS011;5571;48.110;-1.706;2024-03-02T03:39:11;8.00;;;1.90;;
11034;SDS011;5571;48.110;-1.706;2024-03-02T03:41:37;9.47;;;1.83;;
11034;SDS011;5571;48.110;-1.706;2024-03-02T03:44:03;9.43;;;2.43;;
11034;SDS011;5571;48.110;-1.706;2024-03-02T03:46:29;11.03;;;2.10;;
11034;SDS011;5571;48.110;-1.706;2024-03-02T03:48:54;10.77;;;2.20;;
11034;SDS011;5571;48.110;-1.706;2024-03-02T03:51:21;9.70;;;2.33;;
11034;SDS011;5571;48.110;-1.706;2024-03-02T03:53:49;8.03;;;2.03;;
11034;SDS011;5571;48.110;-1.706;2024-03-02T03:56:15;9.63;;;2.00;;
11034;SDS011;5571;48.110;-1.706;2024-03-02T03:58:40;9.10;;;1.90;;
11034;SDS011;5571;48.110;-1.706;2024-03-02T04:01:06;9.30;;;1.47;;
11034;SDS011;5571;48.110;-1.706;2024-03-02T04:03:32;10.63;;;2.30;;
11034;SDS011;5571;48.110;-1.706;2024-03-02T04:05:57;7.90;;;2.00;;
11034;SDS011;5571;48.110;-1.706;2024-03-02T04:08:23;7.03;;;1.60;;
11034;SDS011;5571;48.110;-1.706;2024-03-02T04:10:48;10.97;;;2.00;;
11034;SDS011;5571;48.110;-1.706;2024-03-02T04:13:14;4.53;;;1.43;;
11034;SDS011;5571;48.110;-1.706;2024-03-02T04:15:42;9.33;;;1.73;;
11034;SDS011;5571;48.110;-1.706;2024-03-02T04:18:08;6.90;;;1.77;;
11034;SDS011;5571;48.110;-1.706;2024-03-02T04:20:33;7.77;;;1.53;;
11034;SDS011;5571;48.110;-1.706;2024-03-02T04:22:59;11.73;;;1.90;;
11034;SDS011;5571;48.110;-1.706;2024-03-02T04:25:24;7.70;;;1.80;;
11034;SDS011;5571;48.110;-1.706;2024-03-02T04:27:50;6.67;;;2.03;;
11034;SDS011;5571;48.110;-1.706;2024-03-02T04:30:16;5.13;;;1.17;;
11034;SDS011;5571;48.110;-1.706;2024-03-02T04:32:41;6.57;;;1.30;;
11034;SDS011;5571;48.110;-1.706;2024-03-02T04:35:11;5.60;;;1.57;;
11034;SDS011;5571;48.110;-1.706;2024-03-02T04:37:37;5.23;;;1.33;;
11034;SDS011;5571;48.110;-1.706;2024-03-02T04:40:03;5.97;;;1.50;;
11034;SDS011;5571;48.110;-1.706;2024-03-02T04:42:29;8.43;;;2.10;;
11034;SDS011;5571;48.110;-1.706;2024-03-02T04:44:54;10.57;;;2.07;;
11034;SDS011;5571;48.110;-1.706;2024-03-02T04:47:20;7.13;;;2.00;;
11034;SDS011;5571;48.110;-1.706;2024-03-02T04:49:45;6.50;;;1.53;;
11034;SDS011;5571;48.110;-1.706;2024-03-02T04:52:11;8.40;;;2.13;;
11034;SDS011;5571;48.110;-1.706;2024-03-02T04:54:37;6.93;;;1.97;;
11034;SDS011;5571;48.110;-1.706;2024-03-02T04:57:22;11.40;;;2.27;;
11034;SDS011;5571;48.110;-1.706;2024-03-02T04:59:48;11.73;;;2.27;;
11034;SDS011;5571;48.110;-1.706;2024-03-02T05:02:13;8.10;;;1.93;;
11034;SDS011;5571;48.110;-1.706;2024-03-02T05:04:39;11.47;;;2.43;;
11034;SDS011;5571;48.110;-1.706;2024-03-02T05:07:05;12.77;;;2.17;;
11034;SDS011;5571;48.110;-1.706;2024-03-02T05:09:30;8.53;;;1.53;;
11034;SDS011;5571;48.110;-1.706;2024-03-02T05:11:56;8.10;;;2.00;;
11034;SDS011;5571;48.110;-1.706;2024-03-02T05:14:42;12.60;;;2.30;;
11034;SDS011;5571;48.110;-1.706;2024-03-02T05:17:08;9.47;;;2.07;;
11034;SDS011;5571;48.110;-1.706;2024-03-02T05:19:33;9.70;;;2.17;;
11034;SDS011;5571;48.110;-1.706;2024-03-02T05:21:59;6.80;;;2.20;;
11034;SDS011;5571;48.110;-1.706;2024-03-02T05:24:25;13.70;;;2.20;;
11034;SDS011;5571;48.110;-1.706;2024-03-02T05:26:52;8.50;;;2.03;;
11034;SDS011;5571;48.110;-1.706;2024-03-02T05:29:18;4.73;;;2.00;;
11034;SDS011;5571;48.110;-1.706;2024-03-02T05:31:44;6.10;;;1.70;;
11034;SDS011;5571;48.110;-1.706;2024-03-02T05:34:09;12.53;;;2.00;;
11034;SDS011;5571;48.110;-1.706;2024-03-02T05:36:35;8.70;;;2.43;;
11034;SDS011;5571;48.110;-1.706;2024-03-02T05:39:02;8.83;;;2.53;;
11034;SDS011;5571;48.110;-1.706;2024-03-02T05:41:29;14.27;;;2.33;;
11034;SDS011;5571;48.110;-1.706;2024-03-02T05:43:56;9.63;;;1.87;;
11034;SDS011;5571;48.110;-1.706;2024-03-02T05:46:22;9.30;;;1.70;;
11034;SDS011;5571;48.110;-1.706;2024-03-02T05:48:47;7.90;;;1.57;;
11034;SDS011;5571;48.110;-1.706;2024-03-02T05:51:13;7.40;;;1.60;;
11034;SDS011;5571;48.110;-1.706;2024-03-02T05:53:38;8.37;;;1.70;;
11034;SDS011;5571;48.110;-1.706;2024-03-02T05:56:04;12.23;;;1.87;;
11034;SDS011;5571;48.110;-1.706;2024-03-02T05:58:31;5.67;;;2.07;;
11034;SDS011;5571;48.110;-1.706;2024-03-02T06:01:15;6.40;;;1.90;;
11034;SDS011;5571;48.110;-1.706;2024-03-02T06:03:42;10.20;;;1.80;;
11034;SDS011;5571;48.110;-1.706;2024-03-02T06:06:08;7.30;;;1.93;;
11034;SDS011;5571;48.110;-1.706;2024-03-02T06:08:34;11.20;;;2.27;;
11034;SDS011;5571;48.110;-1.706;2024-03-02T06:11:00;13.50;;;2.27;;
11034;SDS011;5571;48.110;-1.706;2024-03-02T06:13:26;16.57;;;3.27;;
11034;SDS011;5571;48.110;-1.706;2024-03-02T06:15:51;9.07;;;2.60;;
11034;SDS011;5571;48.110;-1.706;2024-03-02T06:18:17;12.00;;;2.40;;
11034;SDS011;5571;48.110;-1.706;2024-03-02T06:20:43;9.87;;;2.37;;
11034;SDS011;5571;48.110;-1.706;2024-03-02T06:23:09;7.63;;;2.17;;
11034;SDS011;5571;48.110;-1.706;2024-03-02T06:25:35;10.23;;;2.53;;
11034;SDS011;5571;48.110;-1.706;2024-03-02T06:28:00;9.83;;;2.30;;
11034;SDS011;5571;48.110;-1.706;2024-03-02T06:30:26;9.83;;;1.97;;
11034;SDS011;5571;48.110;-1.706;2024-03-02T06:32:51;11.17;;;2.20;;
11034;SDS011;5571;48.110;-1.706;2024-03-02T06:35:17;9.80;;;2.00;;
11034;SDS011;5571;48.110;-1.706;2024-03-02T06:37:43;11.57;;;2.03;;
11034;SDS011;5571;48.110;-1.706;2024-03-02T06:40:08;16.23;;;2.90;;
11034;SDS011;5571;48.110;-1.706;2024-03-02T06:42:34;14.00;;;2.60;;
11034;SDS011;5571;48.110;-1.706;2024-03-02T06:45:01;12.63;;;2.80;;
11034;SDS011;5571;48.110;-1.706;2024-03-02T06:47:27;16.07;;;2.77;;
11034;SDS011;5571;48.110;-1.706;2024-03-02T06:49:53;12.97;;;2.67;;
11034;SDS011;5571;48.110;-1.706;2024-03-02T06:52:19;12.47;;;2.70;;
11034;SDS011;5571;48.110;-1.706;2024-03-02T06:54:45;14.87;;;4.03;;
11034;SDS011;5571;48.110;-1.706;2024-03-02T06:57:11;11.70;;;2.53;;
11034;SDS011;5571;48.110;-1.706;2024-03-02T06:59:37;9.33;;;3.27;;
11034;SDS011;5571;48.110;-1.706;2024-03-02T07:02:02;14.40;;;2.63;;
11034;SDS011;5571;48.110;-1.706;2024-03-02T07:04:28;14.17;;;3.00;;
11034;SDS011;5571;48.110;-1.706;2024-03-02T07:06:54;13.83;;;2.73;;
11034;SDS011;5571;48.110;-1.706;2024-03-02T07:09:20;8.23;;;2.53;;
11034;SDS011;5571;48.110;-1.706;2024-03-02T07:11:48;10.83;;;2.80;;
11034;SDS011;5571;48.110;-1.706;2024-03-02T07:14:14;14.97;;;2.93;;
11034;SDS011;5571;48.110;-1.706;2024-03-02T07:16:39;7.83;;;2.50;;
11034;SDS011;5571;48.110;-1.706;2024-03-02T07:19:05;18.33;;;2.50;;
11034;SDS011;5571;48.110;-1.706;2024-03-02T07:21:31;9.00;;;2.50;;
11034;SDS011;5571;48.110;-1.706;2024-03-02T07:23:58;10.73;;;3.00;;
11034;SDS011;5571;48.110;-1.706;2024-03-02T07:26:24;17.13;;;2.83;;
11034;SDS011;5571;48.110;-1.706;2024-03-02T07:28:50;12.80;;;2.73;;
11034;SDS011;5571;48.110;-1.706;2024-03-02T07:31:16;7.47;;;2.20;;
11034;SDS011;5571;48.110;-1.706;2024-03-02T07:33:45;9.60;;;2.60;;
11034;SDS011;5571;48.110;-1.706;2024-03-02T07:36:13;11.00;;;2.70;;
11034;SDS011;5571;48.110;-1.706;2024-03-02T07:38:39;4.70;;;2.20;;
11034;SDS011;5571;48.110;-1.706;2024-03-02T07:41:05;10.17;;;2.77;;
11034;SDS011;5571;48.110;-1.706;2024-03-02T07:43:32;11.50;;;2.80;;
11034;SDS011;5571;48.110;-1.706;2024-03-02T07:45:58;13.90;;;2.63;;
11034;SDS011;5571;48.110;-1.706;2024-03-02T07:48:24;16.10;;;2.77;;
11034;SDS011;5571;48.110;-1.706;2024-03-02T07:50:50;16.17;;;2.77;;
11034;SDS011;5571;48.110;-1.706;2024-03-02T07:53:16;12.97;;;2.87;;
11034;SDS011;5571;48.110;-1.706;2024-03-02T07:55:42;12.20;;;3.30;;
11034;SDS011;5571;48.110;-1.706;2024-03-02T07:58:07;10.50;;;3.07;;
11034;SDS011;5571;48.110;-1.706;2024-03-02T08:00:33;13.80;;;3.80;;
11034;SDS011;5571;48.110;-1.706;2024-03-02T08:03:00;14.80;;;3.87;;
11034;SDS011;5571;48.110;-1.706;2024-03-02T08:05:26;12.13;;;3.90;;
11034;SDS011;5571;48.110;-1.706;2024-03-02T08:07:52;13.03;;;2.80;;
11034;SDS011;5571;48.110;-1.706;2024-03-02T08:10:18;10.63;;;2.90;;
11034;SDS011;5571;48.110;-1.706;2024-03-02T08:12:44;11.93;;;2.53;;
11034;SDS011;5571;48.110;-1.706;2024-03-02T08:15:10;10.90;;;2.87;;
11034;SDS011;5571;48.110;-1.706;2024-03-02T08:17:38;8.90;;;2.43;;
11034;SDS011;5571;48.110;-1.706;2024-03-02T08:20:10;9.23;;;1.83;;
11034;SDS011;5571;48.110;-1.706;2024-03-02T08:22:36;13.97;;;2.77;;
11034;SDS011;5571;48.110;-1.706;2024-03-02T08:25:02;5.37;;;2.00;;
11034;SDS011;5571;48.110;-1.706;2024-03-02T08:27:28;14.97;;;3.50;;
11034;SDS011;5571;48.110;-1.706;2024-03-02T08:29:54;44.57;;;20.23;;
11034;SDS011;5571;48.110;-1.706;2024-03-02T08:32:20;56.33;;;21.20;;
11034;SDS011;5571;48.110;-1.706;2024-03-02T08:34:45;36.77;;;13.90;;
11034;SDS011;5571;48.110;-1.706;2024-03-02T08:37:11;16.87;;;6.10;;
11034;SDS011;5571;48.110;-1.706;2024-03-02T08:39:36;15.10;;;5.17;;
11034;SDS011;5571;48.110;-1.706;2024-03-02T08:42:02;20.93;;;6.53;;
11034;SDS011;5571;48.110;-1.706;2024-03-02T08:44:29;15.40;;;4.27;;
11034;SDS011;5571;48.110;-1.706;2024-03-02T08:46:55;17.73;;;6.47;;
11034;SDS011;5571;48.110;-1.706;2024-03-02T08:49:21;34.17;;;9.43;;
11034;SDS011;5571;48.110;-1.706;2024-03-02T08:51:48;52.27;;;13.40;;
11034;SDS011;5571;48.110;-1.706;2024-03-02T08:54:20;26.03;;;8.57;;
11034;SDS011;5571;48.110;-1.706;2024-03-02T08:56:46;22.23;;;6.77;;
11034;SDS011;5571;48.110;-1.706;2024-03-02T08:59:13;15.03;;;3.10;;
11034;SDS011;5571;48.110;-1.706;2024-03-02T09:01:38;16.17;;;4.10;;
11034;SDS011;5571;48.110;-1.706;2024-03-02T09:04:06;15.30;;;3.20;;
11034;SDS011;5571;48.110;-1.706;2024-03-02T09:06:33;10.90;;;2.63;;
11034;SDS011;5571;48.110;-1.706;2024-03-02T09:08:59;11.03;;;2.53;;
11034;SDS011;5571;48.110;-1.706;2024-03-02T09:11:25;8.10;;;2.70;;
11034;SDS011;5571;48.110;-1.706;2024-03-02T09:13:51;10.20;;;2.40;;
11034;SDS011;5571;48.110;-1.706;2024-03-02T09:16:18;9.70;;;2.30;;
11034;SDS011;5571;48.110;-1.706;2024-03-02T09:18:43;10.43;;;2.30;;
11034;SDS011;5571;48.110;-1.706;2024-03-02T09:21:09;5.23;;;1.93;;
11034;SDS011;5571;48.110;-1.706;2024-03-02T09:23:35;8.33;;;2.57;;
11034;SDS011;5571;48.110;-1.706;2024-03-02T09:26:00;6.33;;;2.27;;
11034;SDS011;5571;48.110;-1.706;2024-03-02T09:28:26;6.07;;;2.57;;
11034;SDS011;5571;48.110;-1.706;2024-03-02T09:30:52;10.87;;;2.60;;
11034;SDS011;5571;48.110;-1.706;2024-03-02T09:33:17;8.30;;;2.40;;
11034;SDS011;5571;48.110;-1.706;2024-03-02T09:35:43;9.57;;;2.77;;
11034;SDS011;5571;48.110;-1.706;2024-03-02T09:38:08;6.93;;;2.50;;
11034;SDS011;5571;48.110;-1.706;2024-03-02T09:40:34;10.63;;;2.93;;
11034;SDS011;5571;48.110;-1.706;2024-03-02T09:43:00;6.53;;;2.00;;
11034;SDS011;5571;48.110;-1.706;2024-03-02T09:45:26;8.73;;;2.53;;
11034;SDS011;5571;48.110;-1.706;2024-03-02T09:47:52;6.43;;;2.20;;
11034;SDS011;5571;48.110;-1.706;2024-03-02T09:50:18;8.63;;;2.17;;
11034;SDS011;5571;48.110;-1.706;2024-03-02T09:52:43;10.77;;;2.40;;
11034;SDS011;5571;48.110;-1.706;2024-03-02T09:55:12;6.10;;;2.10;;
11034;SDS011;5571;48.110;-1.706;2024-03-02T09:57:38;6.57;;;2.40;;
11034;SDS011;5571;48.110;-1.706;2024-03-02T10:00:07;6.77;;;1.90;;
11034;SDS011;5571;48.110;-1.706;2024-03-02T10:02:33;7.57;;;2.73;;
11034;SDS011;5571;48.110;-1.706;2024-03-02T10:04:59;10.00;;;2.33;;
11034;SDS011;5571;48.110;-1.706;2024-03-02T10:07:24;6.50;;;2.43;;
11034;SDS011;5571;48.110;-1.706;2024-03-02T10:09:50;6.67;;;2.53;;
11034;SDS011;5571;48.110;-1.706;2024-03-02T10:12:17;10.00;;;2.80;;
11034;SDS011;5571;48.110;-1.706;2024-03-02T10:14:43;7.00;;;2.33;;
11034;SDS011;5571;48.110;-1.706;2024-03-02T10:17:13;10.30;;;2.53;;
11034;SDS011;5571;48.110;-1.706;2024-03-02T10:19:39;4.60;;;2.43;;
11034;SDS011;5571;48.110;-1.706;2024-03-02T10:22:05;8.13;;;2.20;;
11034;SDS011;5571;48.110;-1.706;2024-03-02T10:24:39;7.50;;;2.27;;
11034;SDS011;5571;48.110;-1.706;2024-03-02T10:27:19;4.30;;;1.87;;
11034;SDS011;5571;48.110;-1.706;2024-03-02T10:29:48;6.07;;;2.13;;
11034;SDS011;5571;48.110;-1.706;2024-03-02T10:32:14;7.87;;;2.33;;
11034;SDS011;5571;48.110;-1.706;2024-03-02T10:34:45;7.40;;;2.73;;
11034;SDS011;5571;48.110;-1.706;2024-03-02T10:37:12;7.83;;;2.43;;
11034;SDS011;5571;48.110;-1.706;2024-03-02T10:39:39;6.37;;;2.40;;
11034;SDS011;5571;48.110;-1.706;2024-03-02T10:42:07;6.67;;;2.37;;
11034;SDS011;5571;48.110;-1.706;2024-03-02T10:44:33;6.10;;;2.20;;
11034;SDS011;5571;48.110;-1.706;2024-03-02T10:47:00;9.20;;;2.40;;
11034;SDS011;5571;48.110;-1.706;2024-03-02T10:49:30;6.57;;;2.20;;
11034;SDS011;5571;48.110;-1.706;2024-03-02T10:51:59;7.63;;;2.13;;
11034;SDS011;5571;48.110;-1.706;2024-03-02T10:54:25;9.57;;;2.67;;
11034;SDS011;5571;48.110;-1.706;2024-03-02T10:56:52;9.90;;;2.30;;
11034;SDS011;5571;48.110;-1.706;2024-03-02T11:01:51;6.93;;;1.93;;
11034;SDS011;5571;48.110;-1.706;2024-03-02T11:04:24;5.77;;;2.23;;
11034;SDS011;5571;48.110;-1.706;2024-03-02T11:06:51;8.10;;;2.40;;
11034;SDS011;5571;48.110;-1.706;2024-03-02T11:09:21;7.20;;;2.20;;
11034;SDS011;5571;48.110;-1.706;2024-03-02T11:12:00;10.17;;;2.53;;
11034;SDS011;5571;48.110;-1.706;2024-03-02T11:14:44;6.83;;;2.30;;
11034;SDS011;5571;48.110;-1.706;2024-03-02T11:17:10;5.03;;;1.90;;
11034;SDS011;5571;48.110;-1.706;2024-03-02T11:19:38;5.50;;;2.33;;
11034;SDS011;5571;48.110;-1.706;2024-03-02T11:22:05;9.10;;;2.47;;
11034;SDS011;5571;48.110;-1.706;2024-03-02T11:24:31;12.37;;;2.33;;
11034;SDS011;5571;48.110;-1.706;2024-03-02T11:27:01;4.70;;;2.00;;
11034;SDS011;5571;48.110;-1.706;2024-03-02T11:32:06;5.63;;;2.13;;
11034;SDS011;5571;48.110;-1.706;2024-03-02T11:34:39;8.70;;;2.20;;
11034;SDS011;5571;48.110;-1.706;2024-03-02T11:37:14;5.03;;;1.90;;
11034;SDS011;5571;48.110;-1.706;2024-03-02T11:39:42;7.77;;;1.87;;
11034;SDS011;5571;48.110;-1.706;2024-03-02T11:42:09;8.60;;;1.83;;
11034;SDS011;5571;48.110;-1.706;2024-03-02T11:44:37;5.33;;;1.93;;
11034;SDS011;5571;48.110;-1.706;2024-03-02T11:47:06;4.77;;;2.13;;
11034;SDS011;5571;48.110;-1.706;2024-03-02T11:49:36;5.93;;;1.87;;
11034;SDS011;5571;48.110;-1.706;2024-03-02T11:52:07;4.53;;;1.70;;
11034;SDS011;5571;48.110;-1.706;2024-03-02T11:54:42;4.93;;;1.63;;
11034;SDS011;5571;48.110;-1.706;2024-03-02T11:57:13;5.33;;;2.03;;
11034;SDS011;5571;48.110;-1.706;2024-03-02T11:59:44;5.10;;;2.17;;
11034;SDS011;5571;48.110;-1.706;2024-03-02T12:02:20;5.23;;;1.70;;
11034;SDS011;5571;48.110;-1.706;2024-03-02T12:04:46;4.07;;;1.60;;
11034;SDS011;5571;48.110;-1.706;2024-03-02T12:07:20;6.93;;;2.60;;
11034;SDS011;5571;48.110;-1.706;2024-03-02T12:09:47;8.83;;;2.97;;
11034;SDS011;5571;48.110;-1.706;2024-03-02T12:12:13;5.60;;;2.70;;
11034;SDS011;5571;48.110;-1.706;2024-03-02T12:14:49;6.93;;;1.90;;
11034;SDS011;5571;48.110;-1.706;2024-03-02T12:17:16;6.23;;;1.80;;
11034;SDS011;5571;48.110;-1.706;2024-03-02T12:19:41;5.27;;;1.60;;
11034;SDS011;5571;48.110;-1.706;2024-03-02T12:22:07;4.17;;;1.80;;
11034;SDS011;5571;48.110;-1.706;2024-03-02T12:24:32;7.10;;;2.00;;
11034;SDS011;5571;48.110;-1.706;2024-03-02T12:26:58;6.13;;;2.27;;
11034;SDS011;5571;48.110;-1.706;2024-03-02T12:29:24;3.40;;;1.67;;
11034;SDS011;5571;48.110;-1.706;2024-03-02T12:31:50;4.43;;;1.30;;
11034;SDS011;5571;48.110;-1.706;2024-03-02T12:34:17;6.43;;;1.67;;
11034;SDS011;5571;48.110;-1.706;2024-03-02T12:36:44;4.87;;;1.90;;
11034;SDS011;5571;48.110;-1.706;2024-03-02T12:39:12;5.70;;;2.00;;
11034;SDS011;5571;48.110;-1.706;2024-03-02T12:41:39;7.70;;;1.70;;
11034;SDS011;5571;48.110;-1.706;2024-03-02T12:44:05;6.40;;;1.60;;
11034;SDS011;5571;48.110;-1.706;2024-03-02T12:46:31;6.53;;;1.70;;
11034;SDS011;5571;48.110;-1.706;2024-03-02T12:49:05;4.30;;;1.40;;
11034;SDS011;5571;48.110;-1.706;2024-03-02T12:51:37;6.70;;;2.07;;
11034;SDS011;5571;48.110;-1.706;2024-03-02T12:54:05;7.47;;;1.97;;
11034;SDS011;5571;48.110;-1.706;2024-03-02T12:56:31;4.67;;;1.87;;
11034;SDS011;5571;48.110;-1.706;2024-03-02T12:58:58;4.70;;;1.63;;
11034;SDS011;5571;48.110;-1.706;2024-03-02T13:01:24;7.47;;;1.90;;
11034;SDS011;5571;48.110;-1.706;2024-03-02T13:03:50;4.80;;;1.77;;
11034;SDS011;5571;48.110;-1.706;2024-03-02T13:06:19;8.77;;;1.93;;
11034;SDS011;5571;48.110;-1.706;2024-03-02T13:08:45;5.90;;;1.77;;
11034;SDS011;5571;48.110;-1.706;2024-03-02T13:11:12;5.50;;;2.33;;
11034;SDS011;5571;48.110;-1.706;2024-03-02T13:13:38;9.13;;;1.87;;
11034;SDS011;5571;48.110;-1.706;2024-03-02T13:16:08;8.40;;;1.90;;
11034;SDS011;5571;48.110;-1.706;2024-03-02T13:18:35;3.67;;;1.97;;
11034;SDS011;5571;48.110;-1.706;2024-03-02T13:21:01;4.37;;;1.90;;
11034;SDS011;5571;48.110;-1.706;2024-03-02T13:23:26;4.77;;;2.23;;
11034;SDS011;5571;48.110;-1.706;2024-03-02T13:25:55;7.10;;;2.17;;
11034;SDS011;5571;48.110;-1.706;2024-03-02T13:28:23;5.80;;;2.57;;
11034;SDS011;5571;48.110;-1.706;2024-03-02T13:30:49;3.90;;;1.23;;
11034;SDS011;5571;48.110;-1.706;2024-03-02T13:33:14;2.80;;;1.33;;
11034;SDS011;5571;48.110;-1.706;2024-03-02T13:35:40;5.67;;;1.53;;
11034;SDS011;5571;48.110;-1.706;2024-03-02T13:38:06;3.10;;;1.90;;
11034;SDS011;5571;48.110;-1.706;2024-03-02T13:40:31;5.20;;;1.60;;
11034;SDS011;5571;48.110;-1.706;2024-03-02T13:43:00;2.57;;;1.47;;
11034;SDS011;5571;48.110;-1.706;2024-03-02T13:45:27;4.70;;;1.70;;
11034;SDS011;5571;48.110;-1.706;2024-03-02T13:47:53;5.07;;;1.73;;
11034;SDS011;5571;48.110;-1.706;2024-03-02T13:50:20;7.80;;;4.70;;
11034;SDS011;5571;48.110;-1.706;2024-03-02T13:52:45;8.00;;;5.30;;
11034;SDS011;5571;48.110;-1.706;2024-03-02T13:55:11;5.07;;;2.50;;
11034;SDS011;5571;48.110;-1.706;2024-03-02T13:57:37;3.73;;;1.70;;
11034;SDS011;5571;48.110;-1.706;2024-03-02T14:00:03;2.90;;;1.77;;
11034;SDS011;5571;48.110;-1.706;2024-03-02T14:02:35;5.07;;;1.40;;
11034;SDS011;5571;48.110;-1.706;2024-03-02T14:05:01;2.40;;;1.17;;
11034;SDS011;5571;48.110;-1.706;2024-03-02T14:07:27;3.57;;;1.40;;
11034;SDS011;5571;48.110;-1.706;2024-03-02T14:09:52;3.00;;;1.20;;
11034;SDS011;5571;48.110;-1.706;2024-03-02T14:12:18;2.10;;;1.20;;
11034;SDS011;5571;48.110;-1.706;2024-03-02T14:14:44;3.70;;;1.57;;
11034;SDS011;5571;48.110;-1.706;2024-03-02T14:17:09;3.60;;;2.70;;
11034;SDS011;5571;48.110;-1.706;2024-03-02T14:19:39;7.67;;;4.47;;
11034;SDS011;5571;48.110;-1.706;2024-03-02T14:22:06;3.30;;;1.40;;
11034;SDS011;5571;48.110;-1.706;2024-03-02T14:24:31;1.47;;;0.90;;
11034;SDS011;5571;48.110;-1.706;2024-03-02T14:26:57;3.73;;;1.27;;
11034;SDS011;5571;48.110;-1.706;2024-03-02T14:29:24;4.27;;;1.70;;
11034;SDS011;5571;48.110;-1.706;2024-03-02T14:31:50;5.10;;;1.80;;
11034;SDS011;5571;48.110;-1.706;2024-03-02T14:34:15;3.77;;;1.83;;
11034;SDS011;5571;48.110;-1.706;2024-03-02T14:36:41;14.50;;;8.07;;
11034;SDS011;5571;48.110;-1.706;2024-03-02T14:39:08;14.73;;;9.00;;
11034;SDS011;5571;48.110;-1.706;2024-03-02T14:41:35;12.50;;;6.60;;
11034;SDS011;5571;48.110;-1.706;2024-03-02T14:44:01;8.13;;;5.50;;
11034;SDS011;5571;48.110;-1.706;2024-03-02T14:46:28;8.30;;;4.63;;
11034;SDS011;5571;48.110;-1.706;2024-03-02T14:48:54;10.00;;;5.63;;
11034;SDS011;5571;48.110;-1.706;2024-03-02T14:51:19;6.60;;;4.67;;